Belo Jardim, Brazil
Current Conditions -  °F | °C
As of 3:00 AM on Monday 24 Nov 2014 (Local Time) from SBKG Reporting Station
Haze Haze  
Wind Chill: 70°   Ceiling: 1100
Heat Index: 70°   Visibility: 3mi
Dew Point: 68°   Wind: 8mph
Humidity: 94%   Direction: 90°E
Pressure: 30"   Gusts: NA
Location:  8.34°S, 36.42°W
Report Text: SBKG 240600Z 09007KT 5000 BR SCT005 BKN011 21/20 Q1016
Loading
Personal Weather Stations






























Interactive Weather Map New forecast layout! Learn more

10-Day Weather Forecast

Advertisements
Track Severe Weather on mobile